Time;durP1;ratioP1;P1;durP2;ratioP2;P2;SDS_P1;SDS_P2;PMS_P1;PMS_P2;Temp;Humidity;BMP_temperature;BMP_pressure;BME280_temperature;BME280_humidity;BME280_pressure;Samples;Min_cycle;Max_cycle;Signal;HPM_P1;HPM_P2
2022/03/28 00:01:40;;;;;;;10.73;5.80;;;;;;;;;;5123862;27;20082;-84
2022/03/28 00:04:06;;;;;;;12.90;6.70;;;;;;;;;;5121224;27;20063;-84
2022/03/28 00:06:33;;;;;;;15.65;6.90;;;;;;;;;;5119987;27;20044;-84
2022/03/28 00:09:00;;;;;;;11.43;6.43;;;;;;;;;;5118009;27;20561;-84
2022/03/28 00:11:27;;;;;;;10.73;5.70;;;;;;;;;;5120091;27;20465;-85
2022/03/28 00:13:55;;;;;;;13.10;6.57;;;;;;;;;;5119071;27;20552;-84
2022/03/28 00:16:22;;;;;;;12.00;5.80;;;;;;;;;;5121798;27;20389;-84
2022/03/28 00:18:48;;;;;;;12.10;6.18;;;;;;;;;;5115968;27;20054;-84
2022/03/28 00:21:15;;;;;;;12.90;6.10;;;;;;;;;;5119146;27;20536;-84
2022/03/28 00:23:41;;;;;;;13.43;6.07;;;;;;;;;;5117585;27;20099;-84
2022/03/28 00:26:08;;;;;;;12.25;6.55;;;;;;;;;;5122337;27;20393;-84
2022/03/28 00:28:35;;;;;;;14.80;6.75;;;;;;;;;;5114431;27;20051;-84
2022/03/28 00:31:03;;;;;;;12.45;6.35;;;;;;;;;;5117149;27;20075;-84
2022/03/28 00:33:29;;;;;;;11.63;5.53;;;;;;;;;;5120795;27;20082;-84
2022/03/28 00:35:56;;;;;;;11.82;5.35;;;;;;;;;;5121113;27;20047;-84
2022/03/28 00:38:22;;;;;;;13.40;6.38;;;;;;;;;;5116827;27;20316;-84
2022/03/28 00:40:49;;;;;;;15.25;7.32;;;;;;;;;;5115176;27;20267;-84
2022/03/28 00:43:16;;;;;;;12.52;6.40;;;;;;;;;;5119469;27;20138;-84
2022/03/28 00:45:43;;;;;;;10.40;5.40;;;;;;;;;;5118354;27;20138;-84
2022/03/28 00:48:12;;;;;;;17.08;7.97;;;;;;;;;;5117939;27;20056;-84
2022/03/28 00:50:39;;;;;;;12.77;5.90;;;;;;;;;;5116236;27;20175;-85
2022/03/28 00:53:08;;;;;;;13.07;6.13;;;;;;;;;;5120890;27;20503;-84
2022/03/28 00:55:35;;;;;;;11.10;6.00;;;;;;;;;;5119540;27;20515;-84
2022/03/28 00:58:02;;;;;;;11.73;5.63;;;;;;;;;;5118256;27;20039;-84
2022/03/28 01:00:28;;;;;;;12.52;5.70;;;;;;;;;;5115354;27;20055;-84
2022/03/28 01:02:56;;;;;;;14.65;5.93;;;;;;;;;;5119897;27;20154;-84
2022/03/28 01:05:26;;;;;;;14.32;6.22;;;;;;;;;;5123210;27;20078;-84
2022/03/28 01:07:53;;;;;;;14.70;6.38;;;;;;;;;;5116409;27;20432;-84
2022/03/28 01:10:20;;;;;;;17.88;6.63;;;;;;;;;;5121271;27;20047;-84
2022/03/28 01:12:47;;;;;;;11.48;6.22;;;;;;;;;;5121992;27;20512;-84
2022/03/28 01:15:15;;;;;;;11.23;6.03;;;;;;;;;;5120784;27;20136;-84
2022/03/28 01:20:27;;;;;;;12.63;6.00;;;;;;;;;;5118690;27;20046;-84
2022/03/28 01:22:55;;;;;;;12.57;6.82;;;;;;;;;;5115905;27;20328;-84
2022/03/28 01:25:24;;;;;;;15.75;8.48;;;;;;;;;;5117077;27;20047;-84
2022/03/28 01:27:52;;;;;;;11.90;6.43;;;;;;;;;;5116511;27;20057;-84
2022/03/28 01:30:20;;;;;;;13.73;5.72;;;;;;;;;;5115080;27;20073;-84
2022/03/28 01:32:47;;;;;;;12.57;5.90;;;;;;;;;;5121082;27;20070;-84
2022/03/28 01:35:13;;;;;;;12.98;6.80;;;;;;;;;;5119660;27;20127;-84
2022/03/28 01:37:40;;;;;;;11.70;6.78;;;;;;;;;;5119107;27;20500;-85
2022/03/28 01:40:09;;;;;;;13.18;5.85;;;;;;;;;;5117444;27;20039;-85
2022/03/28 01:42:36;;;;;;;14.80;6.60;;;;;;;;;;5115041;27;20071;-85
2022/03/28 01:45:03;;;;;;;15.18;7.18;;;;;;;;;;5119311;27;20109;-85
2022/03/28 01:47:29;;;;;;;13.77;6.15;;;;;;;;;;5120317;27;20096;-84
2022/03/28 01:49:56;;;;;;;14.80;8.05;;;;;;;;;;5120899;27;20470;-85
2022/03/28 01:52:22;;;;;;;13.27;6.38;;;;;;;;;;5119592;27;20075;-85
2022/03/28 01:54:49;;;;;;;12.70;6.20;;;;;;;;;;5121223;27;20126;-84
2022/03/28 01:57:17;;;;;;;11.25;5.85;;;;;;;;;;5117593;27;20478;-84
2022/03/28 01:59:43;;;;;;;14.38;5.97;;;;;;;;;;5119742;27;20074;-84
2022/03/28 02:02:10;;;;;;;13.65;6.38;;;;;;;;;;5115276;27;20126;-84
2022/03/28 02:04:36;;;;;;;15.77;7.05;;;;;;;;;;5124394;27;20074;-84
2022/03/28 02:07:03;;;;;;;13.50;6.43;;;;;;;;;;5118686;27;20138;-84
2022/03/28 02:09:30;;;;;;;14.32;6.35;;;;;;;;;;5120834;27;20496;-84
2022/03/28 02:11:56;;;;;;;11.48;5.72;;;;;;;;;;5118734;27;20558;-84
2022/03/28 02:14:24;;;;;;;14.00;6.15;;;;;;;;;;5118922;27;20047;-84
2022/03/28 02:16:51;;;;;;;12.75;6.57;;;;;;;;;;5116585;27;20356;-84
2022/03/28 02:19:17;;;;;;;12.18;6.45;;;;;;;;;;5120818;27;20698;-84
2022/03/28 02:21:44;;;;;;;15.35;7.90;;;;;;;;;;5115123;27;20123;-84
2022/03/28 02:24:10;;;;;;;14.48;6.88;;;;;;;;;;5120343;27;20144;-85
2022/03/28 02:26:37;;;;;;;11.23;5.32;;;;;;;;;;5121405;27;20090;-85
2022/03/28 02:29:04;;;;;;;12.73;6.38;;;;;;;;;;5119609;27;20048;-84
2022/03/28 02:31:32;;;;;;;14.38;7.13;;;;;;;;;;5121013;27;20146;-84
2022/03/28 02:33:59;;;;;;;15.43;6.95;;;;;;;;;;5115296;27;20075;-85
2022/03/28 02:36:26;;;;;;;13.50;5.78;;;;;;;;;;5115013;27;20050;-84
2022/03/28 02:38:52;;;;;;;15.80;6.70;;;;;;;;;;5120150;27;20054;-84
2022/03/28 02:41:19;;;;;;;12.32;6.57;;;;;;;;;;5117813;27;20187;-85
2022/03/28 02:43:45;;;;;;;14.27;5.65;;;;;;;;;;5121099;27;20035;-85
2022/03/28 02:46:18;;;;;;;14.38;7.32;;;;;;;;;;5116886;27;20147;-84
2022/03/28 02:48:46;;;;;;;13.30;6.80;;;;;;;;;;5121006;27;20044;-84
2022/03/28 02:51:12;;;;;;;14.45;6.25;;;;;;;;;;5119327;27;20058;-84
2022/03/28 02:53:39;;;;;;;12.65;6.40;;;;;;;;;;5115885;27;20039;-84
2022/03/28 02:56:06;;;;;;;12.57;5.93;;;;;;;;;;5116056;27;20519;-84
2022/03/28 02:58:32;;;;;;;18.17;6.75;;;;;;;;;;5122663;27;20086;-84
2022/03/28 03:00:59;;;;;;;15.50;7.45;;;;;;;;;;5122014;27;20051;-84
2022/03/28 03:03:26;;;;;;;14.85;6.10;;;;;;;;;;5120038;27;20078;-84
2022/03/28 03:05:54;;;;;;;12.60;7.00;;;;;;;;;;5116281;27;20119;-84
2022/03/28 03:08:20;;;;;;;13.30;6.60;;;;;;;;;;5119396;27;20105;-84
2022/03/28 03:10:47;;;;;;;12.75;6.07;;;;;;;;;;5117535;27;20047;-84
2022/03/28 03:13:13;;;;;;;16.35;6.97;;;;;;;;;;5121033;27;20116;-85
2022/03/28 03:15:40;;;;;;;14.68;7.00;;;;;;;;;;5116595;28;20127;-84
2022/03/28 03:18:06;;;;;;;17.90;6.78;;;;;;;;;;5119499;27;20484;-85
2022/03/28 03:20:33;;;;;;;14.95;7.18;;;;;;;;;;5115292;28;20432;-85
2022/03/28 03:23:01;;;;;;;16.13;7.57;;;;;;;;;;5112213;28;20474;-85
2022/03/28 03:25:28;;;;;;;15.05;6.30;;;;;;;;;;5117109;28;20078;-85
2022/03/28 03:27:55;;;;;;;16.15;7.32;;;;;;;;;;5121211;28;20100;-85
2022/03/28 03:30:21;;;;;;;12.82;6.65;;;;;;;;;;5112699;28;20344;-85
2022/03/28 03:32:48;;;;;;;17.80;8.88;;;;;;;;;;5114494;28;20488;-85
2022/03/28 03:35:15;;;;;;;15.98;7.43;;;;;;;;;;5120303;28;20043;-84
2022/03/28 03:37:42;;;;;;;15.15;6.90;;;;;;;;;;5111508;28;20044;-85
2022/03/28 03:40:12;;;;;;;15.25;7.88;;;;;;;;;;5114907;28;20496;-85
2022/03/28 03:42:39;;;;;;;15.00;7.50;;;;;;;;;;5117369;28;20050;-85
2022/03/28 03:45:06;;;;;;;15.50;6.70;;;;;;;;;;5119021;28;20078;-85
2022/03/28 03:47:33;;;;;;;15.25;7.50;;;;;;;;;;5119525;28;20123;-85
2022/03/28 03:49:59;;;;;;;13.68;6.25;;;;;;;;;;5117648;28;20457;-85
2022/03/28 03:52:26;;;;;;;12.93;6.70;;;;;;;;;;5110894;28;20126;-84
2022/03/28 03:54:56;;;;;;;14.70;7.18;;;;;;;;;;5115404;28;20627;-85
2022/03/28 03:57:24;;;;;;;15.13;6.90;;;;;;;;;;5114508;28;20381;-85
2022/03/28 03:59:50;;;;;;;19.30;8.00;;;;;;;;;;5118141;28;20051;-85
2022/03/28 04:02:17;;;;;;;13.52;7.40;;;;;;;;;;5117023;28;20134;-84
2022/03/28 04:04:44;;;;;;;14.18;6.45;;;;;;;;;;5116662;28;20051;-84
2022/03/28 04:07:10;;;;;;;12.02;6.43;;;;;;;;;;5116632;28;20126;-85
2022/03/28 04:09:37;;;;;;;15.82;7.25;;;;;;;;;;5126709;28;20043;-85
2022/03/28 04:12:05;;;;;;;15.93;7.03;;;;;;;;;;5127087;28;20104;-85
2022/03/28 04:14:33;;;;;;;15.65;7.68;;;;;;;;;;5123511;28;20492;-85
2022/03/28 04:17:00;;;;;;;15.27;6.45;;;;;;;;;;5119272;28;20443;-85
2022/03/28 04:19:27;;;;;;;16.70;7.30;;;;;;;;;;5116693;28;20043;-85
2022/03/28 04:21:53;;;;;;;13.90;7.57;;;;;;;;;;5116578;28;20574;-85
2022/03/28 04:24:20;;;;;;;15.98;6.55;;;;;;;;;;5116053;28;20126;-85
2022/03/28 04:26:47;;;;;;;15.02;7.18;;;;;;;;;;5124077;28;20422;-85
2022/03/28 04:29:14;;;;;;;15.90;7.30;;;;;;;;;;5124796;27;20063;-85
2022/03/28 04:31:42;;;;;;;16.85;7.80;;;;;;;;;;5124994;27;20046;-85
2022/03/28 04:34:09;;;;;;;13.15;6.70;;;;;;;;;;5125907;27;20107;-84
2022/03/28 04:36:37;;;;;;;14.27;6.30;;;;;;;;;;5119823;27;20397;-84
2022/03/28 04:39:04;;;;;;;13.63;7.15;;;;;;;;;;5121187;27;20088;-84
2022/03/28 04:41:31;;;;;;;16.25;7.57;;;;;;;;;;5124463;27;20149;-83
2022/03/28 04:43:57;;;;;;;15.18;7.35;;;;;;;;;;5122685;27;20052;-84
2022/03/28 04:46:24;;;;;;;16.50;6.88;;;;;;;;;;5125614;27;20095;-84
2022/03/28 04:48:52;;;;;;;18.05;7.35;;;;;;;;;;5125794;27;20073;-84
2022/03/28 04:51:19;;;;;;;15.80;7.22;;;;;;;;;;5124982;27;20042;-84
2022/03/28 04:53:45;;;;;;;16.70;7.35;;;;;;;;;;5121619;27;20134;-84
2022/03/28 04:56:12;;;;;;;15.18;7.47;;;;;;;;;;5122813;27;20590;-84
2022/03/28 04:58:38;;;;;;;18.20;9.05;;;;;;;;;;5121808;27;20354;-84
2022/03/28 05:01:05;;;;;;;16.60;7.00;;;;;;;;;;5117386;27;20635;-84
2022/03/28 05:03:31;;;;;;;12.75;6.22;;;;;;;;;;5121966;27;20427;-84
2022/03/28 05:05:59;;;;;;;18.60;8.30;;;;;;;;;;5117755;27;20470;-84
2022/03/28 05:08:26;;;;;;;18.38;8.27;;;;;;;;;;5121163;27;20093;-84
2022/03/28 05:10:52;;;;;;;13.63;6.30;;;;;;;;;;5117757;27;20047;-84
2022/03/28 05:13:20;;;;;;;19.65;7.90;;;;;;;;;;5119145;27;20148;-83
2022/03/28 05:15:47;;;;;;;19.25;7.80;;;;;;;;;;5081086;27;20055;-83
2022/03/28 05:18:14;;;;;;;17.58;7.32;;;;;;;;;;5112734;27;20055;-84
2022/03/28 05:20:41;;;;;;;15.38;6.25;;;;;;;;;;5114575;27;20127;-83
2022/03/28 05:23:09;;;;;;;18.50;8.00;;;;;;;;;;5108848;27;20051;-83
2022/03/28 05:25:36;;;;;;;20.65;7.00;;;;;;;;;;5095531;27;20101;-83
2022/03/28 05:28:03;;;;;;;16.27;7.05;;;;;;;;;;5109650;27;20047;-83
2022/03/28 05:30:29;;;;;;;13.93;7.13;;;;;;;;;;5112377;27;21121;-83
2022/03/28 05:32:56;;;;;;;18.50;7.13;;;;;;;;;;5113233;27;20131;-83
2022/03/28 05:35:22;;;;;;;19.23;7.93;;;;;;;;;;5118616;27;20093;-83
2022/03/28 05:37:49;;;;;;;23.58;7.18;;;;;;;;;;5109871;27;20101;-84
2022/03/28 05:40:17;;;;;;;20.17;7.85;;;;;;;;;;5114387;27;20124;-84
2022/03/28 05:42:44;;;;;;;15.80;7.60;;;;;;;;;;5111524;27;20086;-84
2022/03/28 05:45:12;;;;;;;18.80;7.60;;;;;;;;;;5113282;27;20047;-83
2022/03/28 05:47:39;;;;;;;19.13;8.85;;;;;;;;;;5111734;27;20134;-84
2022/03/28 05:50:13;;;;;;;16.45;7.05;;;;;;;;;;5112222;27;20086;-84
2022/03/28 05:52:40;;;;;;;17.85;7.70;;;;;;;;;;5109840;27;20420;-83
2022/03/28 05:55:08;;;;;;;16.88;8.82;;;;;;;;;;5109314;27;20075;-83
2022/03/28 05:57:36;;;;;;;19.55;8.95;;;;;;;;;;5113369;27;20051;-83
2022/03/28 06:00:05;;;;;;;15.98;7.05;;;;;;;;;;5111047;27;20489;-84
2022/03/28 06:02:32;;;;;;;18.35;7.28;;;;;;;;;;5110453;27;20082;-83
2022/03/28 06:04:59;;;;;;;14.90;6.28;;;;;;;;;;5112875;27;20051;-83
2022/03/28 06:07:25;;;;;;;18.48;8.88;;;;;;;;;;5113780;27;20078;-84
2022/03/28 06:09:52;;;;;;;15.70;6.75;;;;;;;;;;5108748;27;20123;-84
2022/03/28 06:12:18;;;;;;;16.23;7.47;;;;;;;;;;5109701;27;20677;-84
2022/03/28 06:14:46;;;;;;;17.63;7.00;;;;;;;;;;5109042;27;20039;-84
2022/03/28 06:17:20;;;;;;;14.52;7.45;;;;;;;;;;5109756;27;20134;-84
2022/03/28 06:19:47;;;;;;;17.85;8.73;;;;;;;;;;5108414;27;20124;-84
2022/03/28 06:22:13;;;;;;;23.90;8.43;;;;;;;;;;5110745;27;20047;-84
2022/03/28 06:24:40;;;;;;;18.13;8.07;;;;;;;;;;5110051;27;20139;-83
2022/03/28 06:27:06;;;;;;;18.48;7.28;;;;;;;;;;5113804;27;20078;-83
2022/03/28 06:29:33;;;;;;;15.90;7.45;;;;;;;;;;5112176;27;20079;-83
2022/03/28 06:32:01;;;;;;;25.63;12.18;;;;;;;;;;5113942;27;20052;-83
2022/03/28 06:34:28;;;;;;;19.02;8.52;;;;;;;;;;5113866;27;20043;-83
2022/03/28 06:36:54;;;;;;;14.95;8.15;;;;;;;;;;5111258;27;20162;-83
2022/03/28 06:39:21;;;;;;;16.17;7.45;;;;;;;;;;5109806;27;20075;-83
2022/03/28 06:41:48;;;;;;;15.30;7.30;;;;;;;;;;5108591;27;20517;-83
2022/03/28 06:44:14;;;;;;;15.02;7.15;;;;;;;;;;5108650;27;20138;-83
2022/03/28 06:46:42;;;;;;;15.43;7.38;;;;;;;;;;5109140;27;20051;-83
2022/03/28 06:49:10;;;;;;;20.23;7.40;;;;;;;;;;5111828;27;20070;-83
2022/03/28 06:51:36;;;;;;;13.27;7.40;;;;;;;;;;5109420;27;20174;-83
2022/03/28 06:54:04;;;;;;;18.83;8.73;;;;;;;;;;5106270;27;20575;-83
2022/03/28 06:56:31;;;;;;;17.73;8.77;;;;;;;;;;5108382;27;20587;-83
2022/03/28 06:58:57;;;;;;;18.13;8.77;;;;;;;;;;5107329;27;20174;-83
2022/03/28 07:01:24;;;;;;;20.38;8.25;;;;;;;;;;5103286;27;20075;-83
2022/03/28 07:03:50;;;;;;;17.42;8.77;;;;;;;;;;5106736;27;20139;-83
2022/03/28 07:06:18;;;;;;;25.60;10.23;;;;;;;;;;5109525;27;20146;-83
2022/03/28 07:08:45;;;;;;;20.48;9.23;;;;;;;;;;5106013;27;20051;-83
2022/03/28 07:11:12;;;;;;;20.52;10.05;;;;;;;;;;5107314;27;20492;-83
2022/03/28 07:13:38;;;;;;;13.52;8.05;;;;;;;;;;5110539;27;20138;-83
2022/03/28 07:16:05;;;;;;;15.80;8.13;;;;;;;;;;5106737;27;20206;-83
2022/03/28 07:18:32;;;;;;;18.13;8.98;;;;;;;;;;5106974;28;21660;-83
2022/03/28 07:20:58;;;;;;;21.52;9.98;;;;;;;;;;5107466;28;20098;-83
2022/03/28 07:23:26;;;;;;;22.65;9.25;;;;;;;;;;5106922;28;20124;-83
2022/03/28 07:25:53;;;;;;;18.10;11.65;;;;;;;;;;5109323;28;20150;-83
2022/03/28 07:28:20;;;;;;;20.40;9.05;;;;;;;;;;5109888;28;20116;-83
2022/03/28 07:30:47;;;;;;;21.42;10.05;;;;;;;;;;5107725;28;20074;-84
2022/03/28 07:33:13;;;;;;;20.08;9.65;;;;;;;;;;5104364;28;20074;-84
2022/03/28 07:35:41;;;;;;;21.55;8.38;;;;;;;;;;5108880;28;20600;-83
2022/03/28 07:38:08;;;;;;;19.40;9.18;;;;;;;;;;5108567;28;20058;-83
2022/03/28 07:40:37;;;;;;;21.63;9.55;;;;;;;;;;5108003;28;20747;-83
2022/03/28 07:43:04;;;;;;;18.73;9.25;;;;;;;;;;5109310;28;20047;-83
2022/03/28 07:45:30;;;;;;;20.55;9.85;;;;;;;;;;5109064;28;20476;-84
2022/03/28 07:47:57;;;;;;;20.63;9.65;;;;;;;;;;5107651;28;20091;-84
2022/03/28 07:50:23;;;;;;;21.02;9.75;;;;;;;;;;5107229;28;20147;-84
2022/03/28 07:52:50;;;;;;;18.92;10.02;;;;;;;;;;5106858;28;20512;-84
2022/03/28 07:55:18;;;;;;;17.30;10.13;;;;;;;;;;5106689;28;20107;-84
2022/03/28 07:57:46;;;;;;;19.83;9.98;;;;;;;;;;5108621;28;20044;-84
2022/03/28 08:00:16;;;;;;;19.13;10.60;;;;;;;;;;5108409;28;20044;-84
2022/03/28 08:02:43;;;;;;;20.60;10.52;;;;;;;;;;5109403;28;20071;-84
2022/03/28 08:05:10;;;;;;;19.85;9.32;;;;;;;;;;5114387;27;20389;-84
2022/03/28 08:07:37;;;;;;;17.45;10.35;;;;;;;;;;5111845;27;20140;-84
2022/03/28 08:10:05;;;;;;;22.10;11.13;;;;;;;;;;5111808;27;20109;-83
2022/03/28 08:12:32;;;;;;;20.92;10.00;;;;;;;;;;5111571;27;20086;-84
2022/03/28 08:15:00;;;;;;;20.92;11.27;;;;;;;;;;5112297;27;20587;-84
2022/03/28 08:17:27;;;;;;;19.10;10.63;;;;;;;;;;5112300;27;20112;-84
2022/03/28 08:19:53;;;;;;;19.17;10.68;;;;;;;;;;5111770;27;20058;-83
2022/03/28 08:22:20;;;;;;;21.65;11.05;;;;;;;;;;5114383;27;20134;-83
2022/03/28 08:24:47;;;;;;;18.38;10.15;;;;;;;;;;5115687;27;20063;-83
2022/03/28 08:27:13;;;;;;;18.52;10.18;;;;;;;;;;5116657;27;20043;-83
2022/03/28 08:29:40;;;;;;;18.88;9.48;;;;;;;;;;5114504;27;20135;-84
2022/03/28 08:32:09;;;;;;;17.60;10.10;;;;;;;;;;5117254;27;20130;-84
2022/03/28 08:34:35;;;;;;;18.23;11.23;;;;;;;;;;5112077;27;20047;-84
2022/03/28 08:37:02;;;;;;;17.08;10.07;;;;;;;;;;5115379;27;20480;-83
2022/03/28 08:39:30;;;;;;;18.45;10.85;;;;;;;;;;5114939;27;20052;-84
2022/03/28 08:41:57;;;;;;;16.00;9.77;;;;;;;;;;5111626;27;20182;-84
2022/03/28 08:44:26;;;;;;;18.58;10.93;;;;;;;;;;5114775;27;20112;-84
2022/03/28 08:46:55;;;;;;;23.67;12.43;;;;;;;;;;5115595;27;20419;-84
2022/03/28 08:49:23;;;;;;;17.92;11.40;;;;;;;;;;5116732;27;20062;-84
2022/03/28 08:51:51;;;;;;;20.10;11.30;;;;;;;;;;5112721;27;20071;-84
2022/03/28 08:54:18;;;;;;;20.00;12.30;;;;;;;;;;5115044;27;20082;-84
2022/03/28 08:56:44;;;;;;;19.33;11.10;;;;;;;;;;5114519;27;20500;-84
2022/03/28 08:59:11;;;;;;;21.10;11.55;;;;;;;;;;5112723;27;20556;-84
2022/03/28 09:01:38;;;;;;;20.25;11.68;;;;;;;;;;5108929;27;20185;-84
2022/03/28 09:04:08;;;;;;;25.17;12.52;;;;;;;;;;5112212;27;20119;-84
2022/03/28 09:06:37;;;;;;;19.42;10.93;;;;;;;;;;5115907;27;20584;-84
2022/03/28 09:09:16;;;;;;;20.52;11.70;;;;;;;;;;5109294;27;20383;-84
2022/03/28 09:11:44;;;;;;;17.52;12.38;;;;;;;;;;5116758;27;20144;-84
2022/03/28 09:14:17;;;;;;;18.33;11.45;;;;;;;;;;5110545;27;20479;-84
2022/03/28 09:16:44;;;;;;;17.77;12.23;;;;;;;;;;5111663;27;20697;-84
2022/03/28 09:19:12;;;;;;;23.13;13.35;;;;;;;;;;5108841;27;20078;-84
2022/03/28 09:21:40;;;;;;;19.55;12.00;;;;;;;;;;5112143;27;20105;-84
2022/03/28 09:24:09;;;;;;;20.35;13.32;;;;;;;;;;5112308;27;20104;-84
2022/03/28 09:26:36;;;;;;;25.73;13.32;;;;;;;;;;5110442;27;20139;-84
2022/03/28 09:29:05;;;;;;;22.92;12.52;;;;;;;;;;5114318;27;20099;-84
2022/03/28 09:31:34;;;;;;;20.40;12.90;;;;;;;;;;5113391;27;20050;-84
2022/03/28 09:34:07;;;;;;;20.02;13.57;;;;;;;;;;5113548;27;20770;-84
2022/03/28 09:36:49;;;;;;;21.17;12.07;;;;;;;;;;5113521;27;20128;-84
2022/03/28 09:39:18;;;;;;;24.30;13.73;;;;;;;;;;5114245;27;20134;-85
2022/03/28 09:41:46;;;;;;;22.85;14.00;;;;;;;;;;5115473;27;20039;-84
2022/03/28 09:44:13;;;;;;;22.38;13.88;;;;;;;;;;5112934;27;20050;-84
2022/03/28 09:46:40;;;;;;;27.13;14.07;;;;;;;;;;5110395;27;20142;-84
2022/03/28 09:49:08;;;;;;;23.98;13.85;;;;;;;;;;5114356;27;20063;-84
2022/03/28 09:51:36;;;;;;;23.15;14.13;;;;;;;;;;5110238;27;20218;-85
2022/03/28 09:54:04;;;;;;;20.38;12.55;;;;;;;;;;5114396;27;20120;-84
2022/03/28 09:56:31;;;;;;;20.17;13.32;;;;;;;;;;5110452;27;20166;-84
2022/03/28 09:58:59;;;;;;;25.67;15.05;;;;;;;;;;5109853;27;20147;-84
2022/03/28 10:01:30;;;;;;;22.50;14.07;;;;;;;;;;5111118;27;20606;-85
2022/03/28 10:04:00;;;;;;;24.08;14.82;;;;;;;;;;5109361;27;20055;-83
2022/03/28 10:06:27;;;;;;;23.75;14.02;;;;;;;;;;5108600;27;20408;-83
2022/03/28 10:08:54;;;;;;;21.83;14.10;;;;;;;;;;5102291;27;20138;-83
2022/03/28 10:11:22;;;;;;;20.90;13.48;;;;;;;;;;5109561;27;20138;-83
2022/03/28 10:13:49;;;;;;;23.33;15.05;;;;;;;;;;5116197;27;20455;-83
2022/03/28 10:16:16;;;;;;;24.10;14.52;;;;;;;;;;5111314;27;20146;-83
2022/03/28 10:18:44;;;;;;;24.02;14.05;;;;;;;;;;5109530;27;20116;-83
2022/03/28 10:21:15;;;;;;;22.58;14.25;;;;;;;;;;5112094;27;20127;-83
2022/03/28 10:23:47;;;;;;;22.48;14.50;;;;;;;;;;5108489;27;20047;-83
2022/03/28 10:26:14;;;;;;;20.08;13.93;;;;;;;;;;5107737;27;20083;-83
2022/03/28 10:28:42;;;;;;;22.70;13.20;;;;;;;;;;5111543;27;20487;-83
2022/03/28 10:31:12;;;;;;;21.77;13.80;;;;;;;;;;5112102;27;20487;-83
2022/03/28 10:33:47;;;;;;;23.60;14.15;;;;;;;;;;5118284;27;20424;-83
2022/03/28 10:36:27;;;;;;;22.50;13.85;;;;;;;;;;5116389;27;20069;-83
2022/03/28 10:38:57;;;;;;;21.30;13.52;;;;;;;;;;5115966;27;20059;-83
2022/03/28 10:41:26;;;;;;;21.20;13.73;;;;;;;;;;5110588;27;20051;-83
2022/03/28 10:44:03;;;;;;;20.50;12.77;;;;;;;;;;5111555;27;20062;-83
2022/03/28 10:46:34;;;;;;;23.65;13.55;;;;;;;;;;5113407;27;20088;-83
2022/03/28 10:49:02;;;;;;;21.10;13.35;;;;;;;;;;5115222;27;20090;-82
2022/03/28 10:51:31;;;;;;;19.85;13.60;;;;;;;;;;5108103;27;20453;-82
2022/03/28 10:54:00;;;;;;;30.13;13.27;;;;;;;;;;5108640;27;20186;-82
2022/03/28 10:56:27;;;;;;;21.45;13.43;;;;;;;;;;5109788;27;20047;-82
2022/03/28 10:59:06;;;;;;;19.20;13.13;;;;;;;;;;5112272;27;20055;-82
2022/03/28 11:01:49;;;;;;;20.52;12.18;;;;;;;;;;5101549;27;20698;-83
2022/03/28 11:04:21;;;;;;;18.40;12.30;;;;;;;;;;5100327;27;20054;-83
2022/03/28 11:06:59;;;;;;;20.05;11.80;;;;;;;;;;5106086;27;20394;-83
2022/03/28 11:09:47;;;;;;;16.80;11.10;;;;;;;;;;5108011;27;20533;-82
2022/03/28 11:12:15;;;;;;;18.42;11.50;;;;;;;;;;5106687;27;20043;-83
2022/03/28 11:14:46;;;;;;;20.65;11.43;;;;;;;;;;5110151;27;20476;-83
2022/03/28 11:17:14;;;;;;;17.25;11.27;;;;;;;;;;5111537;28;20054;-83
2022/03/28 11:19:52;;;;;;;18.77;11.32;;;;;;;;;;5107794;28;20551;-83
2022/03/28 11:22:19;;;;;;;20.63;12.95;;;;;;;;;;5108866;28;20134;-83
2022/03/28 11:24:48;;;;;;;19.17;11.80;;;;;;;;;;5109706;28;20299;-83
2022/03/28 11:27:17;;;;;;;18.98;12.55;;;;;;;;;;5110404;28;20123;-83
2022/03/28 11:29:46;;;;;;;19.38;11.88;;;;;;;;;;5107516;28;20079;-83
2022/03/28 11:32:14;;;;;;;17.55;10.95;;;;;;;;;;5108367;28;20139;-83
2022/03/28 11:34:41;;;;;;;17.27;10.88;;;;;;;;;;5109339;28;20089;-83
2022/03/28 11:37:08;;;;;;;15.18;10.43;;;;;;;;;;5109938;28;20196;-83
2022/03/28 11:39:53;;;;;;;14.70;9.77;;;;;;;;;;5111696;27;20166;-84
2022/03/28 11:42:21;;;;;;;15.90;9.37;;;;;;;;;;5105370;27;20067;-83
2022/03/28 11:44:50;;;;;;;17.63;9.93;;;;;;;;;;5092807;27;20735;-83
2022/03/28 11:47:18;;;;;;;14.25;8.85;;;;;;;;;;5110189;27;20100;-83
2022/03/28 11:49:52;;;;;;;14.90;9.85;;;;;;;;;;5113609;27;20043;-83
2022/03/28 11:52:19;;;;;;;18.00;9.82;;;;;;;;;;5112244;27;20492;-83
2022/03/28 11:54:46;;;;;;;16.30;10.07;;;;;;;;;;5116522;27;20138;-83
2022/03/28 12:00:14;;;;;;;15.45;8.57;;;;;;;;;;5110919;27;20082;-83
2022/03/28 12:02:51;;;;;;;17.02;9.60;;;;;;;;;;5116880;27;20100;-83
2022/03/28 12:05:31;;;;;;;14.50;9.60;;;;;;;;;;5109136;27;20140;-83
2022/03/28 12:07:59;;;;;;;16.67;10.25;;;;;;;;;;5114908;27;20151;-83
2022/03/28 12:10:28;;;;;;;15.02;9.43;;;;;;;;;;5114297;27;20429;-83
2022/03/28 12:12:55;;;;;;;14.75;8.80;;;;;;;;;;5109793;27;20066;-83
2022/03/28 12:15:32;;;;;;;13.02;9.43;;;;;;;;;;5108419;27;20186;-83
2022/03/28 12:18:00;;;;;;;15.48;10.18;;;;;;;;;;5110509;27;20138;-83
2022/03/28 12:20:28;;;;;;;17.50;9.90;;;;;;;;;;5114468;27;20067;-84
2022/03/28 12:22:55;;;;;;;15.27;9.65;;;;;;;;;;5117134;27;20139;-84
2022/03/28 12:25:24;;;;;;;12.88;9.30;;;;;;;;;;5113888;27;20075;-84
2022/03/28 12:27:54;;;;;;;16.13;9.90;;;;;;;;;;5109072;27;20501;-84
2022/03/28 12:30:25;;;;;;;16.50;8.85;;;;;;;;;;5112632;27;20533;-84
2022/03/28 12:32:53;;;;;;;16.38;9.82;;;;;;;;;;5118260;27;20401;-84
2022/03/28 12:35:21;;;;;;;18.15;9.20;;;;;;;;;;5120879;27;20083;-84
2022/03/28 12:37:57;;;;;;;15.55;9.43;;;;;;;;;;5121684;27;20044;-83
2022/03/28 12:40:32;;;;;;;14.38;9.35;;;;;;;;;;5119923;27;20123;-83
2022/03/28 12:42:59;;;;;;;15.00;9.80;;;;;;;;;;5114512;27;20110;-83
2022/03/28 12:45:27;;;;;;;21.73;11.10;;;;;;;;;;5111502;27;20107;-83
2022/03/28 12:48:01;;;;;;;16.08;10.00;;;;;;;;;;5120076;27;20081;-83
2022/03/28 12:50:28;;;;;;;17.10;9.82;;;;;;;;;;5111308;27;20500;-83
2022/03/28 12:53:14;;;;;;;15.60;10.77;;;;;;;;;;5114468;27;20071;-84
2022/03/28 12:55:43;;;;;;;16.83;9.75;;;;;;;;;;5122739;27;20705;-84
2022/03/28 12:58:10;;;;;;;16.50;11.45;;;;;;;;;;5123249;27;20108;-84
2022/03/28 13:00:37;;;;;;;16.75;10.65;;;;;;;;;;5118991;27;20047;-86
2022/03/28 13:03:05;;;;;;;14.20;9.40;;;;;;;;;;5125351;27;20082;-86
2022/03/28 13:05:32;;;;;;;17.50;10.00;;;;;;;;;;5123428;27;20074;-86
2022/03/28 13:08:07;;;;;;;15.05;9.20;;;;;;;;;;5120461;27;20067;-86
2022/03/28 13:10:36;;;;;;;13.85;9.50;;;;;;;;;;5120372;27;20496;-86
2022/03/28 13:13:03;;;;;;;14.50;9.18;;;;;;;;;;5123612;27;20131;-86
2022/03/28 13:15:36;;;;;;;15.43;8.93;;;;;;;;;;5124192;27;20047;-86
2022/03/28 13:18:06;;;;;;;18.02;9.52;;;;;;;;;;5118819;27;20044;-87
2022/03/28 13:20:34;;;;;;;13.00;8.80;;;;;;;;;;5118641;27;20467;-86
2022/03/28 13:23:01;;;;;;;13.95;8.55;;;;;;;;;;5115834;27;20050;-86
2022/03/28 13:25:28;;;;;;;13.07;8.75;;;;;;;;;;5127137;27;20058;-86
2022/03/28 13:28:10;;;;;;;14.82;8.77;;;;;;;;;;5125017;27;20134;-86
2022/03/28 13:30:43;;;;;;;13.23;9.07;;;;;;;;;;5121960;27;20130;-86
2022/03/28 13:33:12;;;;;;;18.85;9.43;;;;;;;;;;5099177;27;20095;-86
2022/03/28 13:35:40;;;;;;;13.63;9.43;;;;;;;;;;5103341;27;20043;-86
2022/03/28 13:38:08;;;;;;;13.43;8.63;;;;;;;;;;5112746;27;20051;-86
2022/03/28 13:40:36;;;;;;;13.63;8.70;;;;;;;;;;5110759;27;20048;-85
2022/03/28 13:43:03;;;;;;;15.27;9.20;;;;;;;;;;5114971;27;20144;-86
2022/03/28 13:45:31;;;;;;;16.08;9.82;;;;;;;;;;5108803;27;20047;-86
2022/03/28 13:47:58;;;;;;;14.32;8.73;;;;;;;;;;5117023;27;20134;-86
2022/03/28 13:50:26;;;;;;;16.15;10.02;;;;;;;;;;5114620;27;20086;-86
2022/03/28 13:52:53;;;;;;;15.55;9.95;;;;;;;;;;5114216;27;20133;-86
2022/03/28 13:55:19;;;;;;;15.18;10.23;;;;;;;;;;5112083;27;20044;-82
2022/03/28 13:57:46;;;;;;;14.90;9.07;;;;;;;;;;5113842;27;20108;-86
2022/03/28 14:00:14;;;;;;;13.75;9.02;;;;;;;;;;5129978;27;20480;-86
2022/03/28 14:02:40;;;;;;;13.13;8.30;;;;;;;;;;5123013;27;20039;-86
2022/03/28 14:05:08;;;;;;;13.75;8.60;;;;;;;;;;5122850;27;20069;-86
2022/03/28 14:07:36;;;;;;;11.45;8.45;;;;;;;;;;5126338;27;20043;-85
2022/03/28 14:10:03;;;;;;;14.68;8.48;;;;;;;;;;5119770;27;20092;-86
2022/03/28 14:12:30;;;;;;;11.05;8.10;;;;;;;;;;5119771;27;20050;-85
2022/03/28 14:14:57;;;;;;;12.60;7.85;;;;;;;;;;5117755;27;20047;-86
2022/03/28 14:17:23;;;;;;;12.98;7.50;;;;;;;;;;5122295;27;20043;-87
2022/03/28 14:19:50;;;;;;;15.30;8.85;;;;;;;;;;5113570;27;20123;-86
2022/03/28 14:22:17;;;;;;;12.38;8.15;;;;;;;;;;5118196;27;20381;-86
2022/03/28 14:24:47;;;;;;;12.07;7.70;;;;;;;;;;5116971;27;20047;-83
2022/03/28 14:27:14;;;;;;;12.38;8.00;;;;;;;;;;5121470;27;20131;-85
2022/03/28 14:29:44;;;;;;;12.25;8.15;;;;;;;;;;5119094;27;20096;-86
2022/03/28 14:32:11;;;;;;;13.85;9.05;;;;;;;;;;5121802;27;20663;-84
2022/03/28 14:34:37;;;;;;;12.02;8.90;;;;;;;;;;5122117;27;20551;-83
2022/03/28 14:37:04;;;;;;;12.07;8.05;;;;;;;;;;5123299;27;20397;-86